createdAt,value
2019-05-20T15:21:52.836Z,76.58
2019-05-20T15:24:20.155Z,77.14
2019-05-20T15:26:49.288Z,76.11
2019-05-20T15:29:27.713Z,76.49
2019-05-20T15:31:45.557Z,76.12
2019-05-20T15:34:12.602Z,76.85
2019-05-20T15:36:40.145Z,77.13
2019-05-20T15:39:07.439Z,76.50
2019-05-20T15:41:34.602Z,76.43
2019-05-20T15:44:02.238Z,76.14
2019-05-20T15:46:29.522Z,77.18
2019-05-20T15:48:56.594Z,77.39
2019-05-20T15:51:23.781Z,77.41
2019-05-20T15:53:50.909Z,76.90
2019-05-20T15:56:18.119Z,77.31
2019-05-20T15:58:45.284Z,77.41
2019-05-20T16:01:12.482Z,76.77
2019-05-20T16:03:39.620Z,77.13
2019-05-20T16:06:06.988Z,76.07
2019-05-20T16:08:34.107Z,77.47
2019-05-20T16:11:06.618Z,77.45
2019-05-20T16:13:34.029Z,76.79
2019-05-20T16:16:01.611Z,75.62
2019-05-20T16:18:28.794Z,76.40
2019-05-20T16:20:55.865Z,76.96
2019-05-20T16:23:22.921Z,76.63
2019-05-20T16:25:49.997Z,76.32
2019-05-20T16:28:17.276Z,76.19
2019-05-20T16:30:44.806Z,76.77
2019-05-20T16:33:12.070Z,76.15
2019-05-20T16:35:39.091Z,76.06
2019-05-20T16:38:06.331Z,76.23
2019-05-20T16:40:33.513Z,76.50
2019-05-20T16:43:01.058Z,75.00
2019-05-20T16:45:28.291Z,75.55
2019-05-20T16:47:55.406Z,75.57
2019-05-20T16:50:22.616Z,75.87
2019-05-20T16:52:49.753Z,75.36
2019-05-20T16:55:17.559Z,75.41
2019-05-20T16:57:45.239Z,74.98
2019-05-20T17:00:30.723Z,75.77
2019-05-20T17:02:45.107Z,75.83
2019-05-20T17:05:12.889Z,75.74
2019-05-20T17:07:40.037Z,74.95
2019-05-20T17:10:12.107Z,75.49
2019-05-20T17:12:39.258Z,75.22
2019-05-20T17:15:06.920Z,75.37
2019-05-20T17:17:34.122Z,75.30
2019-05-20T17:20:02.795Z,75.48
2019-05-20T17:22:30.316Z,74.64
2019-05-20T17:24:57.694Z,74.39
2019-05-20T17:27:24.722Z,74.74
2019-05-20T17:29:51.751Z,74.46
2019-05-20T17:32:18.819Z,74.82
2019-05-20T17:34:47.927Z,74.76
2019-05-20T17:37:14.980Z,74.49
2019-05-20T17:39:42.059Z,75.00
2019-05-20T17:42:09.089Z,74.94
2019-05-20T17:44:36.164Z,74.52
2019-05-20T17:47:03.503Z,74.51
2019-05-20T17:49:31.055Z,74.91
2019-05-20T17:51:59.233Z,74.84
2019-05-20T17:54:26.373Z,75.16
2019-05-20T17:56:53.469Z,74.79
2019-05-20T17:59:21.777Z,74.33
2019-05-20T18:01:48.891Z,74.45
2019-05-20T18:04:16.063Z,74.73
2019-05-20T18:06:43.209Z,74.71
2019-05-20T18:09:10.644Z,74.88
2019-05-20T18:11:37.757Z,75.24
2019-05-20T18:14:08.038Z,75.09
2019-05-20T18:16:38.868Z,75.28
2019-05-20T18:19:06.098Z,75.17
2019-05-20T18:21:33.501Z,75.27
2019-05-20T18:24:00.600Z,75.47
2019-05-20T18:26:27.888Z,75.56
2019-05-20T18:28:55.177Z,76.11
2019-05-20T18:31:32.575Z,76.89
2019-05-20T18:33:52.652Z,77.44
2019-05-20T18:36:19.756Z,77.59
2019-05-20T18:38:49.382Z,77.71
2019-05-20T18:41:16.083Z,78.94
2019-05-20T18:43:44.620Z,79.70
2019-05-20T18:46:11.737Z,80.74
2019-05-20T18:48:38.914Z,81.51
2019-05-20T18:51:06.755Z,81.73
2019-05-20T18:53:36.086Z,81.87
2019-05-20T18:56:10.717Z,82.19
2019-05-20T18:58:40.878Z,81.58
2019-05-20T19:01:08.253Z,81.20
2019-05-20T19:03:35.611Z,81.76
2019-05-20T19:06:13.453Z,82.06
2019-05-20T19:08:44.196Z,82.13
2019-05-20T19:11:13.196Z,82.37
2019-05-20T19:13:42.344Z,82.22
2019-05-20T19:16:09.781Z,82.20
2019-05-20T19:18:37.693Z,82.67
2019-05-20T19:21:05.078Z,82.69
2019-05-20T19:23:32.994Z,82.85
2019-05-20T19:26:02.077Z,83.02
2019-05-20T19:28:31.646Z,83.03
2019-05-20T19:30:59.316Z,83.27
2019-05-20T19:33:26.695Z,83.69
2019-05-20T19:35:56.296Z,83.42
2019-05-20T19:38:23.489Z,83.62
2019-05-20T19:40:50.931Z,83.67
2019-05-20T19:43:21.334Z,82.82
2019-05-20T19:45:48.410Z,82.79
2019-05-20T19:48:15.556Z,83.22
2019-05-20T19:50:47.343Z,82.69
2019-05-20T19:53:14.462Z,82.90
2019-05-20T19:55:42.903Z,82.94
2019-05-20T19:58:09.974Z,83.01
2019-05-20T20:00:37.022Z,82.27
2019-05-20T20:03:06.014Z,82.83
2019-05-20T20:05:33.658Z,83.09
2019-05-20T20:08:00.686Z,83.68
2019-05-20T20:10:27.729Z,83.44
2019-05-20T20:12:54.834Z,83.24
2019-05-20T20:15:22.981Z,83.25
2019-05-20T20:17:49.972Z,83.54
2019-05-20T20:20:17.264Z,82.58
2019-05-20T20:22:44.315Z,83.43
2019-05-20T20:25:11.507Z,83.49
2019-05-20T20:27:38.598Z,83.54
2019-05-20T20:30:06.349Z,83.37
2019-05-20T20:32:38.292Z,83.35
2019-05-20T20:35:04.145Z,83.74
2019-05-20T20:37:31.347Z,84.30
2019-05-20T20:40:01.123Z,83.89
2019-05-20T20:42:28.181Z,84.05
2019-05-20T20:44:55.242Z,84.73
2019-05-20T20:47:24.427Z,84.50
2019-05-20T20:49:51.502Z,84.43
2019-05-20T20:52:18.535Z,84.08
2019-05-20T20:54:49.526Z,84.19
2019-05-20T20:57:16.683Z,84.05
2019-05-20T20:59:43.687Z,84.12
2019-05-20T21:02:10.838Z,83.57
2019-05-20T21:04:37.939Z,83.68
2019-05-20T21:07:07.128Z,83.69
2019-05-20T21:09:34.549Z,84.22
2019-05-20T21:12:01.797Z,84.61
2019-05-20T21:14:28.777Z,84.27
2019-05-20T21:16:55.873Z,84.19
2019-05-20T21:19:23.042Z,83.89
2019-05-20T21:21:50.125Z,84.64
2019-05-20T21:24:17.224Z,85.25
2019-05-20T21:26:44.365Z,85.58
2019-05-20T21:29:11.418Z,85.58
2019-05-20T21:31:38.440Z,85.36
2019-05-20T21:34:05.515Z,84.75
2019-05-20T21:36:46.589Z,85.09
2019-05-20T21:39:01.472Z,85.59
2019-05-20T21:41:29.541Z,85.84
2019-05-20T21:43:56.583Z,85.66
2019-05-20T21:46:23.604Z,85.53
2019-05-20T21:48:50.764Z,85.48
2019-05-20T21:51:20.249Z,85.44
2019-05-20T21:53:49.144Z,85.50
2019-05-20T21:56:16.227Z,85.14
2019-05-20T21:58:43.268Z,85.21
2019-05-20T22:01:10.384Z,85.46
2019-05-20T22:03:37.635Z,85.50
2019-05-20T22:06:04.672Z,85.71
2019-05-20T22:08:32.147Z,85.69
2019-05-20T22:10:59.200Z,85.83
2019-05-20T22:13:26.325Z,85.87
2019-05-20T22:15:53.359Z,85.75
2019-05-20T22:18:22.794Z,85.17
2019-05-20T22:20:49.912Z,85.07
2019-05-20T22:23:51.834Z,85.19
2019-05-20T22:26:18.895Z,85.31
2019-05-20T22:28:46.025Z,85.27
2019-05-20T22:31:13.142Z,85.38
2019-05-20T22:33:42.605Z,85.45
2019-05-20T22:36:10.811Z,84.72
2019-05-20T22:38:38.742Z,84.85
2019-05-20T22:41:05.841Z,85.07
2019-05-20T22:43:33.966Z,84.97
2019-05-20T22:46:01.031Z,84.91
2019-05-20T22:48:28.112Z,85.07
2019-05-20T22:50:56.477Z,84.97
2019-05-20T22:53:23.957Z,84.81
2019-05-20T22:55:50.981Z,85.20
2019-05-20T22:58:18.068Z,85.60
2019-05-20T23:00:45.104Z,86.05
2019-05-20T23:03:12.199Z,86.24
2019-05-20T23:05:39.213Z,86.50
2019-05-20T23:08:06.283Z,86.16
2019-05-20T23:10:33.276Z,86.24
2019-05-20T23:13:00.314Z,86.07
2019-05-20T23:15:27.359Z,86.27
2019-05-20T23:17:54.466Z,86.16
2019-05-20T23:20:21.505Z,86.34
2019-05-20T23:22:48.673Z,86.24
2019-05-20T23:25:16.116Z,85.99
2019-05-20T23:27:43.184Z,86.02
2019-05-20T23:30:10.339Z,85.94
2019-05-20T23:32:37.378Z,85.71
2019-05-20T23:35:04.593Z,85.86
2019-05-20T23:37:32.182Z,85.48
2019-05-20T23:40:00.874Z,85.31
2019-05-20T23:42:28.330Z,85.13
2019-05-20T23:44:55.390Z,85.21
2019-05-20T23:47:22.393Z,85.18
2019-05-20T23:49:49.397Z,85.15
2019-05-20T23:52:18.478Z,84.99
2019-05-20T23:54:45.570Z,84.80
2019-05-20T23:57:13.611Z,84.56
2019-05-20T23:59:40.696Z,84.73
